createdAt,value
2017-08-22T00:00:36.143Z,13.40
2017-08-22T00:03:03.701Z,13.40
2017-08-22T00:05:31.235Z,13.40
2017-08-22T00:07:58.794Z,13.30
2017-08-22T00:10:26.322Z,13.30
2017-08-22T00:12:53.851Z,13.30
2017-08-22T00:15:21.379Z,13.30
2017-08-22T00:17:48.921Z,13.20
2017-08-22T00:20:16.451Z,13.20
2017-08-22T00:22:43.982Z,13.20
2017-08-22T00:25:11.511Z,13.10
2017-08-22T00:27:39.039Z,13.10
2017-08-22T00:30:06.571Z,13.00
2017-08-22T00:32:34.102Z,13.00
2017-08-22T00:35:01.672Z,13.00
2017-08-22T00:37:29.203Z,12.90
2017-08-22T00:39:56.737Z,12.90
2017-08-22T00:42:24.267Z,12.90
2017-08-22T00:44:51.791Z,12.90
2017-08-22T00:47:19.319Z,12.90
2017-08-22T00:49:46.845Z,12.90
2017-08-22T00:52:14.366Z,12.80
2017-08-22T00:54:41.895Z,12.70
2017-08-22T00:57:09.431Z,12.80
2017-08-22T00:59:36.959Z,12.90
2017-08-22T01:02:04.494Z,12.90
2017-08-22T01:04:32.026Z,13.00
2017-08-22T01:06:59.562Z,13.00
2017-08-22T01:09:27.098Z,13.00
2017-08-22T01:11:54.651Z,13.10
2017-08-22T01:14:22.187Z,13.10
2017-08-22T01:16:49.760Z,13.10
2017-08-22T01:19:17.286Z,13.00
2017-08-22T01:21:44.827Z,13.00
2017-08-22T01:24:12.354Z,13.10
2017-08-22T01:26:39.882Z,13.10
2017-08-22T01:29:07.414Z,13.10
2017-08-22T01:31:34.950Z,13.00
2017-08-22T01:34:02.478Z,13.00
2017-08-22T01:36:30.011Z,13.00
2017-08-22T01:38:57.564Z,13.00
2017-08-22T01:41:25.090Z,13.10
2017-08-22T01:43:52.650Z,13.10
2017-08-22T01:46:20.173Z,13.10
2017-08-22T01:48:47.722Z,13.10
2017-08-22T01:51:15.272Z,13.20
2017-08-22T01:53:42.860Z,13.20
2017-08-22T01:56:10.406Z,13.20
2017-08-22T01:58:37.948Z,13.20
2017-08-22T02:01:05.501Z,13.20
2017-08-22T02:03:33.042Z,13.20
2017-08-22T02:06:00.595Z,13.20
2017-08-22T02:08:28.564Z,13.20
2017-08-22T02:10:56.110Z,13.20
2017-08-22T02:13:23.638Z,13.20
2017-08-22T02:15:51.174Z,13.30
2017-08-22T02:18:18.721Z,13.30
2017-08-22T02:20:46.279Z,13.20
2017-08-22T02:23:13.821Z,13.20
2017-08-22T02:25:41.389Z,13.20
2017-08-22T02:28:08.929Z,13.20
2017-08-22T02:30:36.488Z,13.20
2017-08-22T02:33:04.030Z,13.20
2017-08-22T02:35:31.570Z,13.10
2017-08-22T02:37:59.147Z,13.10
2017-08-22T02:40:26.686Z,13.00
2017-08-22T02:42:54.222Z,12.90
2017-08-22T02:45:21.765Z,12.80
2017-08-22T02:47:49.300Z,12.80
2017-08-22T02:50:16.847Z,12.80
2017-08-22T02:52:44.380Z,12.80
2017-08-22T02:55:11.932Z,12.70
2017-08-22T02:57:39.491Z,12.70
2017-08-22T03:00:07.022Z,12.70
2017-08-22T03:02:34.579Z,12.70
2017-08-22T03:05:02.107Z,12.70
2017-08-22T03:07:29.716Z,12.70
2017-08-22T03:09:57.254Z,12.70
2017-08-22T03:12:24.779Z,12.70
2017-08-22T03:14:52.307Z,12.70
2017-08-22T03:17:19.838Z,12.80
2017-08-22T03:19:47.367Z,12.80
2017-08-22T03:22:14.903Z,12.80
2017-08-22T03:24:42.459Z,12.70
2017-08-22T03:27:10.018Z,12.70
2017-08-22T03:29:37.566Z,12.70
2017-08-22T03:32:05.102Z,12.70
2017-08-22T03:34:32.651Z,12.70
2017-08-22T03:37:00.182Z,12.60
2017-08-22T03:39:27.739Z,12.60
2017-08-22T03:41:55.271Z,12.60
2017-08-22T03:44:22.843Z,12.60
2017-08-22T03:46:50.375Z,12.50
2017-08-22T03:49:17.906Z,12.40
2017-08-22T03:51:45.435Z,12.40
2017-08-22T03:54:12.959Z,12.40
2017-08-22T03:56:40.479Z,12.40
2017-08-22T03:59:08.003Z,12.30
2017-08-22T04:01:35.562Z,12.30
2017-08-22T04:04:03.095Z,12.30
2017-08-22T04:06:30.648Z,12.30
2017-08-22T04:08:58.173Z,12.40
2017-08-22T04:11:25.724Z,12.40
2017-08-22T04:13:53.251Z,12.40
2017-08-22T04:16:20.801Z,12.40
2017-08-22T04:18:48.335Z,12.40
2017-08-22T04:21:15.891Z,12.30
2017-08-22T04:23:43.418Z,12.40
2017-08-22T04:26:10.991Z,12.40
2017-08-22T04:28:38.523Z,12.40
2017-08-22T04:31:06.062Z,12.40
2017-08-22T04:33:33.586Z,12.40
2017-08-22T04:36:01.124Z,12.50
2017-08-22T04:38:28.711Z,12.50
2017-08-22T04:40:56.243Z,12.50
2017-08-22T04:43:23.798Z,12.50
2017-08-22T04:45:51.335Z,12.50
2017-08-22T04:48:18.886Z,12.50
2017-08-22T04:50:46.419Z,12.60
2017-08-22T04:53:13.976Z,12.70
2017-08-22T04:55:41.510Z,12.70
2017-08-22T04:58:09.071Z,12.80
2017-08-22T05:00:36.598Z,12.90
2017-08-22T05:03:04.174Z,12.80
2017-08-22T05:05:31.694Z,12.90
2017-08-22T05:07:59.225Z,13.00
2017-08-22T05:10:26.757Z,13.00
2017-08-22T05:12:54.307Z,13.00
2017-08-22T05:15:21.859Z,13.10
2017-08-22T05:17:49.394Z,13.10
2017-08-22T05:20:16.950Z,13.10
2017-08-22T05:22:44.486Z,13.20
2017-08-22T05:25:12.065Z,13.10
2017-08-22T05:27:39.598Z,13.20
2017-08-22T05:30:07.150Z,13.30
2017-08-22T05:32:34.683Z,13.30
2017-08-22T05:35:02.240Z,13.60
2017-08-22T05:37:29.770Z,13.70
2017-08-22T05:39:57.330Z,13.80
2017-08-22T05:42:24.902Z,13.80
2017-08-22T05:44:52.482Z,13.90
2017-08-22T05:47:20.014Z,14.00
2017-08-22T05:49:47.553Z,14.10
2017-08-22T05:52:15.096Z,14.20
2017-08-22T05:54:42.641Z,14.40
2017-08-22T05:57:10.171Z,14.70
2017-08-22T05:59:37.706Z,14.70
2017-08-22T06:02:05.248Z,15.00
2017-08-22T06:04:32.794Z,15.10
2017-08-22T06:07:00.330Z,15.40
2017-08-22T06:09:27.864Z,15.40
2017-08-22T06:11:55.399Z,15.70
2017-08-22T06:14:22.940Z,15.80
2017-08-22T06:16:50.474Z,15.90
2017-08-22T06:19:18.006Z,15.90
2017-08-22T06:21:45.546Z,15.70
2017-08-22T06:24:13.077Z,15.90
2017-08-22T06:26:40.650Z,16.10
2017-08-22T06:29:08.184Z,16.20
2017-08-22T06:31:35.719Z,16.30
2017-08-22T06:34:03.251Z,16.50
2017-08-22T06:36:30.787Z,16.70
2017-08-22T06:38:58.327Z,16.50
2017-08-22T06:41:25.855Z,16.70
2017-08-22T06:43:53.383Z,16.90
2017-08-22T06:46:20.917Z,17.20
2017-08-22T06:48:48.451Z,17.60
2017-08-22T06:51:15.986Z,17.50
2017-08-22T06:53:43.514Z,18.00
2017-08-22T06:56:11.050Z,18.40
2017-08-22T06:58:38.588Z,18.70
2017-08-22T07:01:06.127Z,18.90
2017-08-22T07:03:33.708Z,18.80
2017-08-22T07:06:01.257Z,19.00
2017-08-22T07:08:28.802Z,19.40
2017-08-22T07:10:56.339Z,19.70
2017-08-22T07:13:23.866Z,19.40
2017-08-22T07:15:51.398Z,19.70
2017-08-22T07:18:18.938Z,20.20
2017-08-22T07:23:20.258Z,20.70
2017-08-22T07:25:47.786Z,21.30
2017-08-22T07:28:15.315Z,21.40
2017-08-22T07:30:42.847Z,21.30
2017-08-22T07:33:10.379Z,21.00
2017-08-22T07:35:37.911Z,20.90
2017-08-22T07:38:05.434Z,20.70
2017-08-22T07:40:32.998Z,20.50
2017-08-22T07:43:00.517Z,20.40
2017-08-22T07:45:28.042Z,20.80
2017-08-22T07:47:55.576Z,21.20
2017-08-22T07:50:23.107Z,21.10
2017-08-22T07:52:50.633Z,19.70
2017-08-22T07:55:18.165Z,19.80
2017-08-22T07:57:45.694Z,19.50
2017-08-22T08:00:13.222Z,20.00
2017-08-22T08:02:40.751Z,20.60
2017-08-22T08:05:08.274Z,21.40
2017-08-22T08:07:35.819Z,21.90
2017-08-22T08:10:03.346Z,22.20
2017-08-22T08:12:30.890Z,22.50
2017-08-22T08:14:58.415Z,22.20
2017-08-22T08:17:25.992Z,22.20
2017-08-22T08:19:53.518Z,21.70
2017-08-22T08:22:21.048Z,21.50
2017-08-22T08:24:48.585Z,21.90
2017-08-22T08:27:16.111Z,21.90
2017-08-22T08:29:43.638Z,21.80
2017-08-22T08:32:11.158Z,22.00
2017-08-22T08:34:38.703Z,21.60
2017-08-22T08:37:06.239Z,21.90
2017-08-22T08:39:33.774Z,21.60
2017-08-22T08:42:01.306Z,22.40
2017-08-22T08:44:28.862Z,22.50
2017-08-22T08:46:56.390Z,22.20
2017-08-22T08:49:23.947Z,22.40
2017-08-22T08:51:51.486Z,22.60
2017-08-22T08:54:19.046Z,22.90
2017-08-22T08:56:46.582Z,22.80
2017-08-22T08:59:14.116Z,22.60
2017-08-22T09:01:41.637Z,22.70
2017-08-22T09:04:09.170Z,22.50
2017-08-22T09:06:36.702Z,21.30
2017-08-22T09:09:04.234Z,20.20
2017-08-22T09:11:31.765Z,21.30
2017-08-22T09:13:59.300Z,21.10
2017-08-22T09:16:26.845Z,21.00
2017-08-22T09:18:54.377Z,21.60
2017-08-22T09:21:21.938Z,21.70
2017-08-22T09:23:49.474Z,21.30
2017-08-22T09:26:17.027Z,21.30
2017-08-22T09:28:44.558Z,21.20
2017-08-22T09:31:12.145Z,20.60
2017-08-22T09:33:39.694Z,20.20
2017-08-22T09:36:07.252Z,21.10
2017-08-22T09:38:34.792Z,21.80
2017-08-22T09:41:02.389Z,20.60
2017-08-22T09:43:29.934Z,19.50
2017-08-22T09:45:57.472Z,20.20
2017-08-22T09:48:25.008Z,20.70
2017-08-22T09:50:52.543Z,20.70
2017-08-22T09:53:20.079Z,21.50
2017-08-22T09:55:47.605Z,21.90
2017-08-22T09:58:15.159Z,21.00
2017-08-22T10:00:42.694Z,20.50
2017-08-22T10:03:10.261Z,21.20
2017-08-22T10:05:37.794Z,21.20
2017-08-22T10:08:05.326Z,20.70
2017-08-22T10:10:32.855Z,21.40
2017-08-22T10:13:00.382Z,22.00
2017-08-22T10:15:27.923Z,22.10
2017-08-22T10:17:55.460Z,21.70
2017-08-22T10:20:23.015Z,21.20
2017-08-22T10:22:50.547Z,21.40
2017-08-22T10:25:18.074Z,22.00
2017-08-22T10:28:19.724Z,22.20
2017-08-22T10:30:47.359Z,22.20
2017-08-22T10:33:14.896Z,22.40
2017-08-22T10:35:42.444Z,22.40
2017-08-22T10:38:09.979Z,22.10
2017-08-22T10:40:37.537Z,22.20
2017-08-22T10:43:05.066Z,21.80
2017-08-22T10:45:32.718Z,21.70
2017-08-22T10:48:00.246Z,21.30
2017-08-22T10:50:28.562Z,20.40
2017-08-22T10:52:56.099Z,20.40
2017-08-22T10:55:23.628Z,20.70
2017-08-22T10:57:51.159Z,21.20
2017-08-22T11:00:18.699Z,21.90
2017-08-22T11:05:20.022Z,22.40
2017-08-22T11:07:47.639Z,22.80
2017-08-22T11:10:15.171Z,22.10
2017-08-22T11:12:42.703Z,21.60
2017-08-22T11:15:10.260Z,21.60
2017-08-22T11:17:37.809Z,21.80
2017-08-22T11:20:05.343Z,21.40
2017-08-22T11:22:32.896Z,21.50
2017-08-22T11:25:00.443Z,22.10
2017-08-22T11:27:28.007Z,22.10
2017-08-22T11:29:55.547Z,21.60
2017-08-22T11:32:23.131Z,21.00
2017-08-22T11:34:50.689Z,21.00
2017-08-22T11:37:18.264Z,21.60
2017-08-22T11:39:52.131Z,21.60
2017-08-22T11:42:19.666Z,21.70
2017-08-22T11:44:47.204Z,21.30
2017-08-22T11:47:14.758Z,21.50
2017-08-22T11:49:42.308Z,22.20
2017-08-22T11:52:09.858Z,22.30
2017-08-22T11:54:37.406Z,21.80
2017-08-22T11:57:04.939Z,21.80
2017-08-22T11:59:32.469Z,21.30
2017-08-22T12:02:00.020Z,20.90
2017-08-22T12:04:27.595Z,20.70
2017-08-22T12:06:55.244Z,20.60
2017-08-22T12:09:22.806Z,20.60
2017-08-22T12:11:50.351Z,20.50
2017-08-22T12:14:17.921Z,20.70
2017-08-22T12:16:45.451Z,21.10
2017-08-22T12:19:12.978Z,21.30
2017-08-22T12:21:40.516Z,21.20
2017-08-22T12:24:08.044Z,21.00
2017-08-22T12:26:35.566Z,21.30
2017-08-22T12:29:03.098Z,21.70
2017-08-22T12:31:30.626Z,21.70
2017-08-22T12:33:58.146Z,21.90
2017-08-22T12:36:26.476Z,21.80
2017-08-22T12:38:54.010Z,21.70
2017-08-22T12:41:21.567Z,21.80
2017-08-22T12:43:49.162Z,21.40
2017-08-22T12:46:16.815Z,21.00
2017-08-22T12:48:44.342Z,20.60
2017-08-22T12:51:11.933Z,20.60
2017-08-22T12:53:39.494Z,21.00
2017-08-22T12:56:07.055Z,21.40
2017-08-22T12:58:34.597Z,21.30
2017-08-22T13:01:02.122Z,21.10
2017-08-22T13:03:29.652Z,20.90
2017-08-22T13:05:57.178Z,21.00
2017-08-22T13:08:24.715Z,21.00
2017-08-22T13:10:52.262Z,20.90
2017-08-22T13:13:19.818Z,20.80
2017-08-22T13:15:47.346Z,20.90
2017-08-22T13:18:14.898Z,21.00
2017-08-22T13:20:42.463Z,20.80
2017-08-22T13:23:10.123Z,20.70
2017-08-22T13:25:37.655Z,20.70
2017-08-22T13:28:05.222Z,20.70
2017-08-22T13:30:32.747Z,20.70
2017-08-22T13:33:00.283Z,20.60
2017-08-22T13:35:27.826Z,20.50
2017-08-22T13:37:55.410Z,21.00
2017-08-22T13:40:23.078Z,21.20
2017-08-22T13:42:50.651Z,21.30
2017-08-22T13:45:18.306Z,21.70
2017-08-22T13:47:45.836Z,21.50
2017-08-22T13:50:13.395Z,21.20
2017-08-22T13:52:40.926Z,20.80
2017-08-22T13:55:08.547Z,20.60
2017-08-22T13:57:36.103Z,20.70
2017-08-22T14:00:03.770Z,20.60
2017-08-22T14:02:31.356Z,20.70
2017-08-22T14:04:58.995Z,20.50
2017-08-22T14:07:26.527Z,20.30
2017-08-22T14:09:54.055Z,20.30
2017-08-22T14:12:21.670Z,20.40
2017-08-22T14:14:49.199Z,20.40
2017-08-22T14:17:16.722Z,20.40
2017-08-22T14:19:44.254Z,20.30
2017-08-22T14:22:11.810Z,20.30
2017-08-22T14:24:39.330Z,20.10
2017-08-22T14:27:06.887Z,19.90
2017-08-22T14:29:34.425Z,20.20
2017-08-22T14:32:02.002Z,20.40
2017-08-22T14:34:29.543Z,20.50
2017-08-22T14:36:57.119Z,20.50
2017-08-22T14:39:24.658Z,20.60
2017-08-22T14:41:52.190Z,20.70
2017-08-22T14:44:19.714Z,20.50
2017-08-22T14:46:47.340Z,20.20
2017-08-22T14:49:14.906Z,19.90
2017-08-22T14:51:42.434Z,19.80
2017-08-22T14:54:10.035Z,20.00
2017-08-22T14:56:38.632Z,20.20
2017-08-22T14:59:06.255Z,20.40
2017-08-22T15:01:33.786Z,20.40
2017-08-22T15:04:01.354Z,20.80
2017-08-22T15:06:29.134Z,20.90
2017-08-22T15:08:56.673Z,21.00
2017-08-22T15:11:24.208Z,20.80
2017-08-22T15:13:51.739Z,20.50
2017-08-22T15:16:19.294Z,20.30
2017-08-22T15:18:46.847Z,20.20
2017-08-22T15:21:14.398Z,20.10
2017-08-22T15:23:41.934Z,20.00
2017-08-22T15:26:09.490Z,20.00
2017-08-22T15:28:37.782Z,19.80
2017-08-22T15:31:05.559Z,19.90
2017-08-22T15:33:33.765Z,19.80
2017-08-22T15:36:03.837Z,19.80
2017-08-22T15:38:34.028Z,19.70
2017-08-22T15:41:07.152Z,19.70
2017-08-22T15:43:40.889Z,19.60
2017-08-22T15:46:10.556Z,19.60
2017-08-22T15:48:45.038Z,19.50
2017-08-22T15:51:22.101Z,19.20
2017-08-22T15:53:51.510Z,19.30
2017-08-22T15:56:23.831Z,19.50
2017-08-22T15:58:52.504Z,19.70
2017-08-22T16:01:20.689Z,19.90
2017-08-22T16:03:51.110Z,20.00
2017-08-22T16:06:20.299Z,20.00
2017-08-22T16:08:53.760Z,19.90
2017-08-22T16:11:25.760Z,19.70
2017-08-22T16:13:54.195Z,19.60
2017-08-22T16:16:26.624Z,19.40
2017-08-22T16:18:57.316Z,19.40
2017-08-22T16:21:31.224Z,19.30
2017-08-22T16:24:03.166Z,19.20
2017-08-22T16:26:34.174Z,19.20
2017-08-22T16:32:04.991Z,19.10
2017-08-22T16:50:13.883Z,18.60
2017-08-22T17:07:23.753Z,18.40
2017-08-22T17:57:09.639Z,17.20
2017-08-22T17:59:37.194Z,17.20
2017-08-22T18:02:04.763Z,17.00
2017-08-22T18:04:32.299Z,16.90
2017-08-22T18:06:59.842Z,16.80
2017-08-22T18:09:27.391Z,16.70
2017-08-22T18:11:54.930Z,16.70
2017-08-22T18:14:22.467Z,16.60
2017-08-22T18:16:50.005Z,16.50
2017-08-22T18:19:17.568Z,16.40
2017-08-22T18:21:47.004Z,16.30
2017-08-22T18:24:14.591Z,16.30
2017-08-22T18:26:42.125Z,16.20
2017-08-22T18:29:09.774Z,16.10
2017-08-22T18:31:37.306Z,16.00
2017-08-22T18:34:04.859Z,15.90
2017-08-22T18:36:32.391Z,15.80
2017-08-22T18:38:59.953Z,15.80
2017-08-22T18:41:27.494Z,15.70
2017-08-22T18:43:55.134Z,15.60
2017-08-22T18:46:22.660Z,15.50
2017-08-22T18:48:50.227Z,15.50
2017-08-22T18:51:17.755Z,15.40
2017-08-22T18:53:45.288Z,15.30
2017-08-22T18:56:12.820Z,15.20
2017-08-22T18:58:40.351Z,15.10
2017-08-22T19:01:08.767Z,14.90
2017-08-22T19:03:36.306Z,14.90
2017-08-22T19:06:03.870Z,14.90
2017-08-22T19:08:31.405Z,14.80
2017-08-22T19:10:58.965Z,14.70
2017-08-22T19:13:26.518Z,14.70
2017-08-22T19:15:54.075Z,14.60
2017-08-22T19:18:21.602Z,14.60
2017-08-22T19:20:49.162Z,14.50
2017-08-22T19:23:16.694Z,14.50
2017-08-22T19:25:44.226Z,14.40
2017-08-22T19:28:12.528Z,14.30
2017-08-22T19:30:40.054Z,14.30
2017-08-22T19:33:07.618Z,14.30
2017-08-22T19:35:35.143Z,14.20
2017-08-22T19:38:03.482Z,14.10
2017-08-22T19:40:31.109Z,14.10
2017-08-22T19:42:58.707Z,14.00
2017-08-22T19:45:26.268Z,14.00
2017-08-22T19:47:53.902Z,14.00
2017-08-22T19:50:21.446Z,13.90
2017-08-22T19:52:48.989Z,13.80
2017-08-22T19:55:17.281Z,14.00
2017-08-22T19:57:44.806Z,13.70
2017-08-22T20:00:12.428Z,13.70
2017-08-22T20:02:40.021Z,13.60
2017-08-22T20:05:07.579Z,13.60
2017-08-22T20:07:35.231Z,13.60
2017-08-22T20:10:02.778Z,13.50
2017-08-22T20:12:30.308Z,13.50
2017-08-22T20:14:57.890Z,13.50
2017-08-22T20:17:25.435Z,13.50
2017-08-22T20:19:53.010Z,13.40
2017-08-22T20:22:20.547Z,13.40
2017-08-22T20:24:48.138Z,13.30
2017-08-22T20:27:15.694Z,13.30
2017-08-22T20:29:43.296Z,13.20
2017-08-22T20:32:10.864Z,13.20
2017-08-22T20:34:39.172Z,13.10
2017-08-22T20:37:06.734Z,13.10
2017-08-22T20:39:34.292Z,13.10
2017-08-22T20:42:01.944Z,13.00
2017-08-22T20:44:29.491Z,13.00
2017-08-22T20:46:57.149Z,13.00
2017-08-22T20:49:24.707Z,13.00
2017-08-22T20:51:52.241Z,12.90
2017-08-22T20:54:19.799Z,12.90
2017-08-22T20:56:47.367Z,12.80
2017-08-22T20:59:14.911Z,12.80
2017-08-22T21:01:42.567Z,12.80
2017-08-22T21:04:10.116Z,12.70
2017-08-22T21:06:37.650Z,12.70
2017-08-22T21:09:05.200Z,12.70
2017-08-22T21:11:32.742Z,12.70
2017-08-22T21:14:00.274Z,12.70
2017-08-22T21:16:27.802Z,12.60
2017-08-22T21:18:55.335Z,12.60
2017-08-22T21:21:22.870Z,12.60
2017-08-22T21:23:50.512Z,12.60
2017-08-22T21:26:18.076Z,12.50
2017-08-22T21:28:45.619Z,12.40
2017-08-22T21:31:13.215Z,12.50
2017-08-22T21:33:40.814Z,12.40
2017-08-22T21:36:08.358Z,12.40
2017-08-22T21:38:35.950Z,12.40
2017-08-22T21:41:03.514Z,12.40
2017-08-22T21:43:31.050Z,12.40
2017-08-22T21:45:58.591Z,12.30
2017-08-22T21:48:26.135Z,12.30
2017-08-22T21:50:53.673Z,12.30
2017-08-22T21:53:21.293Z,12.30
2017-08-22T21:55:48.887Z,12.20
2017-08-22T21:58:16.526Z,12.20
2017-08-22T22:00:44.085Z,12.20
2017-08-22T22:03:11.635Z,12.20
2017-08-22T22:05:39.165Z,12.20
2017-08-22T22:08:06.699Z,12.20
2017-08-22T22:10:34.253Z,12.10
2017-08-22T22:13:01.814Z,12.10
2017-08-22T22:15:29.339Z,12.10
2017-08-22T22:17:56.882Z,12.10
2017-08-22T22:20:24.419Z,12.00
2017-08-22T22:22:52.023Z,12.00
2017-08-22T22:25:19.570Z,12.00
2017-08-22T22:27:47.107Z,11.90
2017-08-22T22:30:14.690Z,11.90
2017-08-22T22:32:42.218Z,11.90
2017-08-22T22:35:09.753Z,11.80
2017-08-22T22:37:37.627Z,11.80
2017-08-22T22:40:05.173Z,11.80
2017-08-22T22:42:32.710Z,11.80
2017-08-22T22:45:00.239Z,11.80
2017-08-22T22:47:27.798Z,11.70
2017-08-22T22:49:55.374Z,11.70
2017-08-22T22:52:23.037Z,11.70
2017-08-22T22:54:50.603Z,11.70
2017-08-22T22:57:18.130Z,11.60
2017-08-22T22:59:45.675Z,11.60
2017-08-22T23:02:13.210Z,11.60
2017-08-22T23:04:46.896Z,11.50
2017-08-22T23:07:14.438Z,11.50
2017-08-22T23:09:42.405Z,11.50
2017-08-22T23:12:09.934Z,11.50
2017-08-22T23:14:37.467Z,11.50
2017-08-22T23:17:05.023Z,11.40
2017-08-22T23:19:32.556Z,11.40
2017-08-22T23:22:00.086Z,11.40
2017-08-22T23:24:27.642Z,11.40
2017-08-22T23:26:55.235Z,11.30
2017-08-22T23:29:22.794Z,11.30
2017-08-22T23:31:50.323Z,11.30
2017-08-22T23:34:18.658Z,11.20
2017-08-22T23:36:46.206Z,11.20
2017-08-22T23:39:13.743Z,11.20
2017-08-22T23:41:41.270Z,11.20
2017-08-22T23:44:08.799Z,11.20
2017-08-22T23:46:36.430Z,11.20
2017-08-22T23:49:03.961Z,11.20
2017-08-22T23:51:31.551Z,11.20
2017-08-22T23:53:59.080Z,11.10
2017-08-22T23:56:26.638Z,11.00
2017-08-22T23:58:54.158Z,11.00
